createdAt,value
2022-11-16T00:18:40.904Z,98.44
2022-11-16T00:48:43.869Z,99.01
2022-11-16T01:18:47.280Z,98.85
2022-11-16T01:48:50.274Z,98.60
2022-11-16T02:18:54.058Z,98.68
2022-11-16T02:48:56.996Z,99.05
2022-11-16T03:19:01.097Z,98.34
2022-11-16T03:49:04.183Z,97.92
2022-11-16T04:19:08.015Z,97.84
2022-11-16T04:49:10.857Z,97.30
2022-11-16T05:19:14.715Z,96.48
2022-11-16T05:49:17.675Z,96.55
2022-11-16T06:19:21.909Z,96.16
2022-11-16T06:49:24.782Z,95.34
2022-11-16T07:19:29.351Z,95.20
2022-11-16T07:49:32.374Z,94.42
2022-11-16T08:19:36.945Z,93.84
2022-11-16T08:49:42.918Z,93.36
2022-11-16T09:19:49.168Z,94.50
2022-11-16T09:49:52.041Z,93.66
2022-11-16T10:19:56.010Z,92.94
2022-11-16T10:49:58.876Z,92.67
2022-11-16T11:20:03.164Z,91.82
2022-11-16T11:50:06.122Z,91.63
2022-11-16T12:20:10.240Z,91.44
2022-11-16T12:50:13.190Z,90.56
2022-11-16T13:20:16.892Z,89.75
2022-11-16T13:50:20.176Z,89.22
2022-11-16T14:20:24.940Z,89.22
2022-11-16T14:50:28.846Z,89.04
2022-11-16T15:20:32.325Z,89.35
2022-11-16T15:50:35.716Z,90.29
2022-11-16T16:20:38.945Z,90.46
2022-11-16T16:50:42.652Z,90.32
2022-11-16T17:20:45.733Z,89.87
2022-11-16T17:50:49.343Z,90.27
2022-11-16T18:20:52.990Z,90.27
2022-11-16T18:50:56.879Z,90.18
2022-11-16T19:21:00.505Z,88.61
2022-11-16T19:51:04.348Z,87.88
2022-11-16T20:21:08.907Z,87.64
2022-11-16T20:51:13.641Z,87.10
2022-11-16T21:21:17.754Z,86.79
2022-11-16T21:51:21.054Z,87.06
2022-11-16T22:21:24.809Z,87.33
2022-11-16T22:51:28.320Z,87.44
2022-11-16T23:21:31.925Z,87.14
2022-11-16T23:51:34.759Z,87.15
